Time;durP1;ratioP1;P1;durP2;ratioP2;P2;SDS_P1;SDS_P2;PMS_P1;PMS_P2;Temp;Humidity;BMP_temperature;BMP_pressure;BME280_temperature;BME280_humidity;BME280_pressure;Samples;Min_cycle;Max_cycle;Signal;HPM_P1;HPM_P2
2021/01/28 00:01:18;;;;;;;68.52;31.00;;;;;;;-2.19;78.18;99699.89;2115085;82;21156;-76
2021/01/28 00:04:19;;;;;;;74.70;32.83;;;;;;;-2.24;78.20;99701.94;2109430;83;21575;-75
2021/01/28 00:07:21;;;;;;;68.45;31.73;;;;;;;-2.27;78.31;99697.76;2100564;82;21154;-72
2021/01/28 00:10:23;;;;;;;68.15;31.10;;;;;;;-2.34;78.20;99688.66;2105139;83;21138;-74
2021/01/28 00:13:24;;;;;;;63.08;29.67;;;;;;;-2.36;78.27;99686.17;2076102;83;21605;-78
2021/01/28 00:16:27;;;;;;;63.28;29.23;;;;;;;-2.39;78.05;99683.77;2081986;83;21194;-72
2021/01/28 00:19:29;;;;;;;63.68;29.50;;;;;;;-2.43;78.23;99682.73;2105432;82;22305;-73
2021/01/28 00:22:30;;;;;;;67.40;30.25;;;;;;;-2.47;78.49;99689.89;2106120;83;21148;-72
2021/01/28 00:25:32;;;;;;;67.55;31.62;;;;;;;-2.48;78.55;99696.00;2106001;83;21162;-73
2021/01/28 00:28:33;;;;;;;72.95;31.42;;;;;;;-2.49;78.60;99694.34;2100965;82;21190;-74
2021/01/28 00:31:35;;;;;;;71.02;32.98;;;;;;;-2.50;78.71;99699.18;2102411;83;21263;-75
2021/01/28 00:34:36;;;;;;;76.35;35.58;;;;;;;-2.49;78.77;99694.34;2105754;82;21154;-79
2021/01/28 00:37:38;;;;;;;74.70;32.65;;;;;;;-2.50;78.83;99692.69;2100944;83;21147;-74
2021/01/28 00:40:39;;;;;;;72.05;31.68;;;;;;;-2.52;78.85;99695.84;2099265;83;21158;-76
2021/01/28 00:43:41;;;;;;;68.95;31.20;;;;;;;-2.48;78.95;99702.50;2098039;83;21092;-75
2021/01/28 00:46:44;;;;;;;73.92;33.25;;;;;;;-2.44;78.84;99695.38;2103762;82;21243;-73
2021/01/28 00:49:45;;;;;;;71.57;32.08;;;;;;;-2.42;78.88;99694.35;2107877;83;21269;-76
2021/01/28 00:52:47;;;;;;;70.50;31.82;;;;;;;-2.43;78.83;99675.77;2099889;82;21219;-73
2021/01/28 00:55:50;;;;;;;65.30;29.98;;;;;;;-2.46;78.79;99685.06;2100256;82;21159;-73
2021/01/28 00:58:55;;;;;;;69.53;31.77;;;;;;;-2.49;78.89;99673.56;2099054;83;21347;-74
2021/01/28 01:01:59;;;;;;;61.20;30.80;;;;;;;-2.47;78.89;99662.61;2104064;83;21327;-73
2021/01/28 01:05:00;;;;;;;67.15;31.77;;;;;;;-2.49;78.89;99672.27;2086751;83;21223;-73
2021/01/28 01:08:05;;;;;;;65.67;29.77;;;;;;;-2.54;78.96;99662.61;2066399;84;21446;-74
2021/01/28 01:11:10;;;;;;;65.35;28.85;;;;;;;-2.59;79.02;99664.65;2091646;83;21510;-73
2021/01/28 01:14:12;;;;;;;65.75;29.25;;;;;;;-2.65;79.13;99659.84;2068496;85;21537;-74
2021/01/28 01:17:14;;;;;;;61.92;30.25;;;;;;;-2.69;79.18;99666.99;2070795;84;21161;-74
2021/01/28 01:20:20;;;;;;;66.40;28.67;;;;;;;-2.72;79.16;99661.52;2067374;83;21159;-74
2021/01/28 01:23:23;;;;;;;62.83;30.17;;;;;;;-2.76;79.33;99660.05;2072974;85;21211;-74
2021/01/28 01:26:35;;;;;;;70.10;33.00;;;;;;;-2.80;79.35;99652.05;2069486;83;21152;-75
2021/01/28 01:29:36;;;;;;;73.22;30.75;;;;;;;-2.84;79.33;99636.31;2068012;83;21560;-73
2021/01/28 01:32:55;;;;;;;62.88;28.05;;;;;;;-2.85;79.55;99628.13;2071589;84;21205;-75
2021/01/28 01:35:58;;;;;;;58.08;28.77;;;;;;;-2.86;79.51;99629.53;2062523;84;21145;-74
2021/01/28 01:39:00;;;;;;;63.23;29.95;;;;;;;-2.87;79.49;99618.32;2068103;84;21700;-82
2021/01/28 01:42:07;;;;;;;67.25;30.12;;;;;;;-2.91;79.64;99601.72;2063863;85;21134;-73
2021/01/28 01:45:10;;;;;;;59.58;28.75;;;;;;;-2.91;79.64;99602.55;2066155;84;21167;-73
2021/01/28 01:48:21;;;;;;;64.12;28.70;;;;;;;-2.94;79.72;99600.97;2067439;85;21134;-73
2021/01/28 01:51:28;;;;;;;61.50;30.12;;;;;;;-2.93;79.82;99596.60;2062310;85;21197;-74
2021/01/28 01:54:35;;;;;;;60.63;28.55;;;;;;;-2.91;79.80;99586.97;2062333;85;22733;-74
2021/01/28 01:57:38;;;;;;;62.08;29.65;;;;;;;-2.91;79.80;99585.67;2051608;85;21209;-76
2021/01/28 02:00:41;;;;;;;63.10;29.10;;;;;;;-2.92;79.90;99579.28;2064668;84;21192;-74
2021/01/28 02:03:45;;;;;;;63.20;29.32;;;;;;;-2.94;79.94;99588.45;2076351;83;21184;-73
2021/01/28 02:07:13;;;;;;;65.00;29.85;;;;;;;-2.96;79.84;99589.00;2117291;83;21088;-73
2021/01/28 02:10:33;;;;;;;59.63;26.87;;;;;;;-2.97;79.92;99591.23;2110378;82;21243;-76
2021/01/28 02:13:45;;;;;;;64.60;29.15;;;;;;;-2.97;79.95;99578.27;2098918;83;21196;-74
2021/01/28 02:17:23;;;;;;;55.63;27.55;;;;;;;-2.97;79.92;99573.07;2031179;85;21272;-74
2021/01/28 02:20:46;;;;;;;56.73;26.25;;;;;;;-2.98;79.87;99568.81;2016713;85;21393;-74
2021/01/28 02:24:16;;;;;;;56.40;27.87;;;;;;;-3.02;79.94;99555.64;2113273;83;21140;-82
2021/01/28 02:27:18;;;;;;;55.88;28.10;;;;;;;-3.05;80.02;99545.45;2115102;83;21133;-74
2021/01/28 02:30:33;;;;;;;56.80;27.17;;;;;;;-3.09;80.01;99538.32;2110879;83;21220;-77
2021/01/28 02:33:46;;;;;;;58.92;28.42;;;;;;;-3.08;80.03;99537.38;2114361;81;21150;-79
2021/01/28 02:37:20;;;;;;;61.25;26.80;;;;;;;-3.07;80.04;99534.31;2112984;82;21765;-77
2021/01/28 02:40:40;;;;;;;56.42;27.27;;;;;;;-3.11;80.20;99521.17;1933481;91;21311;-76
2021/01/28 02:43:59;;;;;;;57.13;28.60;;;;;;;-3.10;80.12;99508.55;2109754;82;21318;-78
2021/01/28 02:47:14;;;;;;;57.03;26.40;;;;;;;-3.12;80.28;99507.84;2053513;83;21121;-75
2021/01/28 02:50:27;;;;;;;57.65;27.27;;;;;;;-3.13;80.29;99507.45;2071633;83;21552;-74
2021/01/28 02:53:48;;;;;;;58.00;26.90;;;;;;;-3.12;80.39;99505.24;2116352;82;21204;-76
2021/01/28 02:56:51;;;;;;;60.78;27.48;;;;;;;-3.11;80.32;99504.30;2114780;83;21180;-74
2021/01/28 02:59:53;;;;;;;57.05;25.30;;;;;;;-3.12;80.28;99502.17;2082852;83;21264;-74
2021/01/28 03:02:55;;;;;;;53.17;26.17;;;;;;;-3.10;80.29;99499.47;2114222;81;21172;-74
2021/01/28 03:05:59;;;;;;;56.10;27.32;;;;;;;-3.12;80.34;99489.20;2106747;83;21188;-76
2021/01/28 03:09:01;;;;;;;51.75;25.48;;;;;;;-3.12;80.34;99493.56;2113197;83;21200;-78
2021/01/28 03:12:07;;;;;;;54.48;26.37;;;;;;;-3.13;80.35;99491.88;2088914;83;21102;-75
2021/01/28 03:15:18;;;;;;;55.45;26.87;;;;;;;-3.15;80.26;99488.09;2108884;83;21126;-75
2021/01/28 03:18:21;;;;;;;51.50;24.80;;;;;;;-3.14;80.35;99480.66;2094804;83;21169;-75
2021/01/28 03:21:23;;;;;;;54.45;25.85;;;;;;;-3.16;80.30;99478.16;2112647;83;21601;-75
2021/01/28 03:24:35;;;;;;;52.08;24.32;;;;;;;-3.19;80.38;99479.64;2113292;83;21637;-76
2021/01/28 03:27:40;;;;;;;51.18;23.22;;;;;;;-3.20;80.50;99479.28;2117679;83;21169;-83
2021/01/28 03:30:46;;;;;;;51.63;25.40;;;;;;;-3.20;80.62;99472.80;2107144;83;21874;-75
2021/01/28 03:33:48;;;;;;;49.08;23.80;;;;;;;-3.22;80.65;99475.95;2112835;81;21183;-74
2021/01/28 03:36:50;;;;;;;51.65;22.87;;;;;;;-3.21;80.67;99477.63;2116103;83;21346;-74
2021/01/28 03:39:53;;;;;;;49.13;23.80;;;;;;;-3.20;80.65;99470.20;2113140;83;21152;-77
2021/01/28 03:42:55;;;;;;;49.30;24.52;;;;;;;-3.19;80.62;99477.05;2117118;83;21224;-74
2021/01/28 03:45:57;;;;;;;50.30;24.80;;;;;;;-3.18;80.57;99482.63;2109447;83;21112;-80
2021/01/28 03:48:58;;;;;;;49.73;23.92;;;;;;;-3.16;80.54;99477.33;2114505;81;21191;-78
2021/01/28 03:52:14;;;;;;;47.15;23.55;;;;;;;-3.13;80.52;99473.23;2113468;82;21157;-75
2021/01/28 03:55:35;;;;;;;57.53;25.17;;;;;;;-3.12;80.49;99463.72;2111254;83;21113;-75
2021/01/28 03:58:37;;;;;;;53.38;24.52;;;;;;;-3.07;80.54;99466.83;2120109;83;21124;-73
2021/01/28 04:01:53;;;;;;;47.40;21.55;;;;;;;-3.05;80.56;99457.20;2071820;83;21200;-73
2021/01/28 04:05:14;;;;;;;49.80;23.07;;;;;;;-3.03;80.67;99444.48;2109307;83;21136;-73
2021/01/28 04:08:23;;;;;;;49.80;23.52;;;;;;;-3.01;80.62;99433.55;2111672;81;21537;-72
2021/01/28 04:11:44;;;;;;;53.02;25.68;;;;;;;-3.02;80.55;99425.84;2116331;83;21128;-73
2021/01/28 04:14:47;;;;;;;47.65;23.35;;;;;;;-3.01;80.54;99423.64;2111982;83;21173;-73
2021/01/28 04:17:53;;;;;;;56.42;24.50;;;;;;;-3.01;80.49;99414.55;2115002;83;21203;-73
2021/01/28 04:20:56;;;;;;;57.55;24.25;;;;;;;-2.98;80.53;99406.09;2109061;83;21172;-75
2021/01/28 04:23:57;;;;;;;49.35;24.92;;;;;;;-2.97;80.48;99395.25;2117085;83;21212;-74
2021/01/28 04:27:01;;;;;;;50.45;22.80;;;;;;;-2.97;80.37;99387.45;2114266;83;21349;-72
2021/01/28 04:30:09;;;;;;;49.70;23.20;;;;;;;-2.96;80.42;99377.43;2108964;83;21113;-77
2021/01/28 04:33:12;;;;;;;52.85;23.30;;;;;;;-2.94;80.54;99377.70;2113837;83;21525;-73
2021/01/28 04:36:31;;;;;;;51.05;24.00;;;;;;;-2.92;80.47;99362.03;2115774;83;21204;-77
2021/01/28 04:39:53;;;;;;;;;;;;;;;-2.89;80.43;99373.98;2105717;83;21121;-77
2021/01/28 04:42:57;;;;;;;51.25;22.10;;;;;;;-2.87;80.33;99369.51;2093311;83;20543;-74
2021/01/28 04:46:04;;;;;;;49.42;23.05;;;;;;;-2.85;80.24;99365.88;2116211;83;21168;-72
2021/01/28 04:49:12;;;;;;;47.70;23.07;;;;;;;-2.81;80.20;99366.53;2110100;83;21508;-74
2021/01/28 04:52:17;;;;;;;48.17;22.73;;;;;;;-2.75;80.27;99364.83;2114397;83;21133;-73
2021/01/28 04:55:26;;;;;;;49.27;21.85;;;;;;;-2.65;80.15;99354.66;2105630;83;21117;-73
2021/01/28 04:58:30;;;;;;;48.65;21.50;;;;;;;-2.63;79.96;99351.50;2113992;83;21263;-73
2021/01/28 05:01:37;;;;;;;43.33;21.80;;;;;;;-2.61;80.07;99353.53;2113565;83;21572;-73
2021/01/28 05:04:57;;;;;;;45.67;22.02;;;;;;;-2.55;80.00;99349.23;2103851;82;21168;-73
2021/01/28 05:08:01;;;;;;;46.45;21.37;;;;;;;-2.49;80.07;99342.31;2092581;83;21183;-74
2021/01/28 05:11:27;;;;;;;47.13;22.27;;;;;;;-2.44;79.99;99335.05;2073632;84;21241;-73
2021/01/28 05:14:35;;;;;;;42.95;21.37;;;;;;;-2.41;79.86;99333.55;2090877;83;21208;-76
2021/01/28 05:18:02;;;;;;;47.20;24.27;;;;;;;-2.40;79.76;99339.56;2092006;83;21537;-75
2021/01/28 05:21:21;;;;;;;44.98;23.02;;;;;;;-2.34;79.86;99332.64;2090612;84;21126;-74
2021/01/28 05:24:39;;;;;;;37.48;20.62;;;;;;;-2.33;79.71;99328.66;2084116;83;21135;-71
2021/01/28 05:27:42;;;;;;;41.45;20.55;;;;;;;-2.34;79.65;99332.17;2091644;83;21193;-71
2021/01/28 05:30:46;;;;;;;44.60;19.37;;;;;;;-2.38;79.60;99328.61;2068740;84;21091;-81
2021/01/28 05:33:48;;;;;;;44.08;20.68;;;;;;;-2.44;79.56;99328.55;2088178;83;21193;-72
2021/01/28 05:37:04;;;;;;;40.35;20.52;;;;;;;-2.44;79.64;99328.55;2077952;83;21814;-75
2021/01/28 05:40:22;;;;;;;40.35;19.02;;;;;;;-2.44;79.66;99315.56;2088364;83;21117;-72
2021/01/28 05:43:44;;;;;;;43.75;19.12;;;;;;;-2.42;79.77;99316.30;2091473;83;21176;-78
2021/01/28 05:47:20;;;;;;;41.88;19.15;;;;;;;-2.41;79.80;99299.77;2092232;83;21199;-72
2021/01/28 05:50:40;;;;;;;41.83;20.00;;;;;;;-2.38;79.75;99296.95;2089134;83;22956;-72
2021/01/28 05:54:01;;;;;;;44.98;20.43;;;;;;;-2.37;79.76;99302.98;2089782;83;21098;-73
2021/01/28 05:57:14;;;;;;;40.75;20.48;;;;;;;-2.35;79.83;99303.23;2067305;83;21204;-74
2021/01/28 06:00:32;;;;;;;43.83;19.57;;;;;;;-2.30;79.79;99305.06;2086552;83;21692;-75
2021/01/28 06:04:07;;;;;;;42.93;19.73;;;;;;;-2.23;79.88;99298.14;2093332;83;21240;-78
2021/01/28 06:07:44;;;;;;;46.70;20.52;;;;;;;-2.18;79.83;99290.86;2074727;84;21605;-78
2021/01/28 06:11:42;;;;;;;40.98;19.73;;;;;;;-2.12;79.81;99291.73;2076257;84;21827;-74
2021/01/28 06:15:29;;;;;;;39.38;19.48;;;;;;;-2.08;79.86;99281.50;2074414;84;21592;-78
2021/01/28 06:19:03;;;;;;;41.33;18.48;;;;;;;-2.03;79.81;99279.38;2079646;84;21158;-75
2021/01/28 06:22:48;;;;;;;33.90;17.73;;;;;;;-2.01;79.91;99273.62;2085783;84;21154;-74
2021/01/28 06:26:26;;;;;;;40.60;18.90;;;;;;;-1.98;79.94;99261.70;2084822;84;21161;-80
2021/01/28 06:29:51;;;;;;;37.85;18.35;;;;;;;-1.99;79.93;99265.25;2047393;84;21569;-73
2021/01/28 06:33:17;;;;;;;39.95;19.60;;;;;;;-2.00;79.99;99253.17;2001518;87;21198;-75
2021/01/28 06:37:01;;;;;;;35.10;20.05;;;;;;;-1.97;80.06;99264.68;2086734;84;21153;-74
2021/01/28 06:40:24;;;;;;;34.08;17.85;;;;;;;-1.93;80.21;99259.61;2076830;84;21197;-74
2021/01/28 06:43:55;;;;;;;33.53;17.02;;;;;;;-1.92;80.23;99241.76;2077727;84;21174;-74
2021/01/28 06:47:26;;;;;;;30.15;17.17;;;;;;;-1.89;80.40;99244.14;2083345;84;21138;-74
2021/01/28 06:50:56;;;;;;;32.33;16.77;;;;;;;-1.84;80.37;99243.34;2031311;84;21173;-74
2021/01/28 06:54:11;;;;;;;36.20;18.73;;;;;;;-1.75;80.45;99237.13;2079217;84;21216;-77
2021/01/28 06:58:04;;;;;;;69.58;29.35;;;;;;;-1.65;80.46;99234.23;2078641;84;21221;-74
2021/01/28 07:01:40;;;;;;;33.05;17.77;;;;;;;-1.58;80.46;99225.03;2081991;84;21137;-74
2021/01/28 07:04:55;;;;;;;32.88;16.12;;;;;;;-1.54;80.52;99225.66;2078774;84;21189;-74
2021/01/28 07:08:06;;;;;;;29.92;16.37;;;;;;;-1.53;80.73;99223.41;2076520;84;21170;-75
2021/01/28 07:11:18;;;;;;;29.30;15.10;;;;;;;-1.50;80.97;99224.48;2087319;84;21241;-75
2021/01/28 07:14:33;;;;;;;31.07;15.95;;;;;;;-1.46;80.87;99223.34;2070681;84;21604;-74
2021/01/28 07:18:00;;;;;;;27.42;16.30;;;;;;;-1.42;80.91;99219.08;2080840;84;21827;-79
2021/01/28 07:21:09;;;;;;;26.85;16.10;;;;;;;-1.36;80.99;99221.70;2084410;84;21177;-78
2021/01/28 07:24:35;;;;;;;32.45;16.97;;;;;;;-1.30;81.11;99219.12;2075011;84;20326;-76
2021/01/28 07:27:59;;;;;;;32.00;16.23;;;;;;;-1.26;81.19;99208.85;2084965;84;21233;-80
2021/01/28 07:31:28;;;;;;;25.60;15.43;;;;;;;-1.22;81.31;99191.57;2080487;84;22404;-73
2021/01/28 07:34:30;;;;;;;31.25;17.07;;;;;;;-1.16;81.28;99191.59;2078553;84;21174;-74
2021/01/28 07:37:39;;;;;;;35.65;17.32;;;;;;;-1.05;81.31;99185.09;2080837;84;21296;-74
2021/01/28 07:41:10;;;;;;;35.00;18.75;;;;;;;-0.95;81.27;99178.27;2082136;84;21110;-75
2021/01/28 07:44:44;;;;;;;26.70;14.30;;;;;;;-0.85;81.23;99173.17;2079750;84;21338;-80
2021/01/28 07:47:58;;;;;;;31.37;17.85;;;;;;;-0.77;81.27;99172.11;2069704;84;21593;-74
2021/01/28 07:51:32;;;;;;;33.08;19.48;;;;;;;-0.69;81.29;99177.56;2079961;84;21295;-73
2021/01/28 07:54:37;;;;;;;31.35;17.95;;;;;;;-0.64;81.28;99180.30;2081614;84;21194;-76
2021/01/28 07:57:45;;;;;;;26.33;14.70;;;;;;;-0.61;81.27;99178.28;2084238;84;21121;-76
2021/01/28 08:00:49;;;;;;;28.65;16.07;;;;;;;-0.54;81.29;99175.54;2082813;84;21161;-74
2021/01/28 08:04:05;;;;;;;28.27;16.73;;;;;;;-0.48;81.23;99165.97;2078749;84;21751;-73
2021/01/28 08:07:10;;;;;;;34.33;18.17;;;;;;;-0.42;81.19;99162.50;2075316;83;21156;-73
2021/01/28 08:10:38;;;;;;;41.08;20.35;;;;;;;-0.36;81.23;99152.92;2094694;83;21161;-75
2021/01/28 08:13:41;;;;;;;30.88;16.30;;;;;;;-0.29;81.21;99154.91;2065705;85;21178;-74
2021/01/28 08:16:50;;;;;;;24.90;15.58;;;;;;;-0.21;81.06;99149.58;2067617;84;21197;-75
2021/01/28 08:19:51;;;;;;;23.25;13.38;;;;;;;-0.17;81.04;99146.61;2070299;84;21189;-73
2021/01/28 08:23:07;;;;;;;19.65;12.05;;;;;;;-0.19;80.91;99143.29;2063902;83;21216;-74
2021/01/28 08:26:13;;;;;;;27.02;13.93;;;;;;;-0.17;80.92;99141.84;2044587;84;21226;-74
2021/01/28 08:29:21;;;;;;;30.12;14.33;;;;;;;-0.14;80.95;99142.45;2065474;84;21232;-73
2021/01/28 08:32:30;;;;;;;64.17;24.82;;;;;;;-0.10;80.87;99145.16;2071291;83;21122;-73
2021/01/28 08:35:44;;;;;;;60.17;21.35;;;;;;;-0.07;80.93;99140.99;2069842;85;21197;-75
2021/01/28 08:38:46;;;;;;;45.17;15.30;;;;;;;-0.03;80.93;99131.14;2060636;84;21141;-73
2021/01/28 08:42:05;;;;;;;36.68;14.73;;;;;;;0.01;80.85;99127.83;2069156;83;21128;-74
2021/01/28 08:45:23;;;;;;;30.17;14.60;;;;;;;0.03;80.84;99123.30;2050396;85;21358;-73
2021/01/28 08:48:25;;;;;;;33.18;14.70;;;;;;;0.08;80.88;99123.75;2063876;84;21550;-73
2021/01/28 08:51:27;;;;;;;37.15;16.32;;;;;;;0.10;80.84;99114.03;2065344;85;21140;-79
2021/01/28 08:54:37;;;;;;;25.08;13.10;;;;;;;0.16;80.92;99098.70;2069250;84;21224;-73
2021/01/28 08:57:39;;;;;;;22.70;11.22;;;;;;;0.25;80.87;99097.59;2061376;83;21150;-73
2021/01/28 09:00:46;;;;;;;19.75;11.38;;;;;;;0.30;80.76;99101.97;2096945;83;22497;-73
2021/01/28 09:04:08;;;;;;;24.77;12.93;;;;;;;0.36;80.73;99091.02;2045965;85;21201;-73
2021/01/28 09:07:12;;;;;;;32.75;14.13;;;;;;;0.41;80.77;99083.64;2078173;83;21141;-75
2021/01/28 09:10:39;;;;;;;30.80;12.15;;;;;;;0.44;80.55;99077.68;2089573;83;21699;-73
2021/01/28 09:13:40;;;;;;;25.25;13.55;;;;;;;0.44;80.42;99081.59;2085237;83;21166;-73
2021/01/28 09:16:56;;;;;;;28.52;12.88;;;;;;;0.48;80.42;99078.27;2093302;83;21537;-77
2021/01/28 09:20:01;;;;;;;44.20;17.87;;;;;;;0.53;80.26;99071.34;2088806;83;22027;-75
2021/01/28 09:23:12;;;;;;;28.80;12.47;;;;;;;0.59;80.35;99061.69;2089344;83;21539;-76
2021/01/28 09:26:31;;;;;;;29.90;14.83;;;;;;;0.63;80.29;99069.63;2092828;83;21153;-73
2021/01/28 09:29:40;;;;;;;30.65;13.65;;;;;;;0.64;80.16;99060.34;2095112;83;21173;-76
2021/01/28 09:32:42;;;;;;;21.62;12.50;;;;;;;0.66;80.16;99063.66;2088736;83;21094;-76
2021/01/28 09:36:08;;;;;;;21.87;13.10;;;;;;;0.69;80.17;99058.66;2097275;83;21632;-73
2021/01/28 09:39:20;;;;;;;29.63;16.73;;;;;;;0.73;80.05;99056.61;2091148;83;21704;-79
2021/01/28 09:42:30;;;;;;;35.08;17.73;;;;;;;0.73;79.95;99049.60;2092402;83;21688;-76
2021/01/28 09:45:32;;;;;;;24.05;12.82;;;;;;;0.75;79.96;99046.39;2093845;83;21165;-76
2021/01/28 09:48:33;;;;;;;29.65;14.33;;;;;;;0.75;79.84;99033.33;2091033;83;21481;-74
2021/01/28 09:51:37;;;;;;;27.67;14.55;;;;;;;0.79;79.92;99033.44;2094540;83;21695;-75
2021/01/28 09:54:38;;;;;;;34.45;16.93;;;;;;;0.84;79.83;99021.27;2069595;83;21163;-75
2021/01/28 09:57:40;;;;;;;21.37;12.85;;;;;;;0.89;79.59;99026.45;2092633;83;21164;-76
2021/01/28 10:00:41;;;;;;;24.57;12.68;;;;;;;0.91;79.52;99011.14;2092127;83;21169;-76
2021/01/28 10:03:42;;;;;;;47.45;20.62;;;;;;;0.96;79.63;99011.55;2093800;83;21574;-77
2021/01/28 10:06:44;;;;;;;23.20;12.58;;;;;;;1.01;79.44;99010.67;2093066;83;21154;-76
2021/01/28 10:09:46;;;;;;;23.05;13.45;;;;;;;1.04;79.24;99013.02;2104343;83;21145;-77
2021/01/28 10:12:48;;;;;;;22.70;13.43;;;;;;;1.07;79.23;99016.22;2101389;83;21564;-83
2021/01/28 10:15:50;;;;;;;25.23;15.45;;;;;;;1.05;79.08;99012.91;2101718;82;21252;-76
2021/01/28 10:18:51;;;;;;;30.43;17.02;;;;;;;1.05;79.05;99009.47;2108639;83;21134;-77
2021/01/28 10:21:53;;;;;;;27.02;15.53;;;;;;;1.03;78.97;99004.36;2103217;83;21107;-77
2021/01/28 10:24:54;;;;;;;20.97;11.93;;;;;;;1.06;79.01;98992.34;2107437;82;21099;-77
2021/01/28 10:27:56;;;;;;;19.60;12.18;;;;;;;1.09;79.00;98992.06;2103590;82;21743;-76
2021/01/28 10:30:59;;;;;;;19.98;11.30;;;;;;;1.12;78.86;98992.28;2096697;82;21197;-76
2021/01/28 10:34:01;;;;;;;21.48;12.68;;;;;;;1.12;78.73;98994.90;2108093;83;21566;-76
2021/01/28 10:37:04;;;;;;;23.32;13.18;;;;;;;1.14;78.83;98985.14;2100924;83;21535;-76
2021/01/28 10:40:08;;;;;;;19.52;11.78;;;;;;;1.17;78.86;98986.18;2108326;83;22132;-77
2021/01/28 10:43:09;;;;;;;18.25;11.22;;;;;;;1.18;78.70;98976.06;2106930;83;21130;-76
2021/01/28 10:46:11;;;;;;;16.45;9.75;;;;;;;1.20;78.62;98980.68;2097368;82;21193;-80
2021/01/28 10:49:12;;;;;;;13.72;9.65;;;;;;;1.20;78.63;98965.49;2107872;82;21121;-77
2021/01/28 10:52:14;;;;;;;16.15;10.23;;;;;;;1.23;78.62;98975.19;2100431;83;21249;-79
2021/01/28 10:55:18;;;;;;;16.50;11.18;;;;;;;1.25;78.55;98971.97;2103298;82;21165;-77
2021/01/28 10:58:22;;;;;;;18.12;10.70;;;;;;;1.30;78.61;98956.71;2100682;83;21141;-78
2021/01/28 11:01:23;;;;;;;16.75;10.80;;;;;;;1.36;78.54;98955.83;2097897;83;21145;-76
2021/01/28 11:04:24;;;;;;;20.17;10.78;;;;;;;1.41;78.49;98944.00;2104779;82;21180;-76
2021/01/28 11:07:27;;;;;;;16.73;11.03;;;;;;;1.47;78.37;98944.75;2096217;83;21224;-75
2021/01/28 11:10:29;;;;;;;17.55;10.88;;;;;;;1.55;78.44;98936.23;2093884;83;21204;-76
2021/01/28 11:13:30;;;;;;;16.60;10.15;;;;;;;1.60;78.31;98932.69;2067690;83;21098;-77
2021/01/28 11:16:34;;;;;;;14.65;9.90;;;;;;;1.65;78.05;98927.06;2091143;84;21217;-83
2021/01/28 11:19:35;;;;;;;14.28;10.03;;;;;;;1.68;77.93;98922.37;2090886;83;21192;-77
2021/01/28 11:22:39;;;;;;;15.32;10.18;;;;;;;1.75;77.97;98914.32;2092481;83;21129;-77
2021/01/28 11:25:41;;;;;;;15.70;10.20;;;;;;;1.76;77.72;98910.73;2089972;83;21169;-83
2021/01/28 11:28:44;;;;;;;17.77;10.55;;;;;;;1.75;77.65;98905.16;2089655;83;21866;-78
2021/01/28 11:31:46;;;;;;;14.80;10.28;;;;;;;1.74;77.58;98902.19;2088133;83;21185;-76
2021/01/28 11:34:48;;;;;;;13.83;9.38;;;;;;;1.75;77.53;98893.40;2087971;83;21105;-81
2021/01/28 11:37:50;;;;;;;15.65;9.68;;;;;;;1.76;77.37;98890.30;2092060;83;21192;-76
2021/01/28 11:40:52;;;;;;;16.12;10.48;;;;;;;1.78;77.36;98894.91;2089233;83;21648;-77
2021/01/28 11:43:54;;;;;;;19.73;11.12;;;;;;;1.81;77.47;98901.66;2094690;84;21093;-83
2021/01/28 11:46:55;;;;;;;17.07;11.33;;;;;;;1.81;77.40;98899.04;2091258;83;21530;-77
2021/01/28 11:49:57;;;;;;;17.02;10.55;;;;;;;1.79;77.18;98893.45;2093803;83;21210;-78
2021/01/28 11:52:58;;;;;;;19.40;11.10;;;;;;;1.78;77.17;98893.11;2094235;83;21158;-77
2021/01/28 11:56:00;;;;;;;18.60;11.05;;;;;;;1.75;77.27;98886.04;2089266;83;21138;-78
2021/01/28 11:59:01;;;;;;;20.37;11.35;;;;;;;1.74;77.16;98881.75;2093701;83;21089;-76
2021/01/28 12:02:03;;;;;;;21.10;12.10;;;;;;;1.74;77.17;98872.11;2090778;83;21169;-75
2021/01/28 12:05:07;;;;;;;20.92;11.68;;;;;;;1.73;77.26;98868.34;2086010;83;21140;-79
2021/01/28 12:08:09;;;;;;;20.68;12.00;;;;;;;1.73;77.08;98867.04;2109057;83;21125;-74
2021/01/28 12:11:10;;;;;;;26.45;14.90;;;;;;;1.72;77.30;98868.02;2083311;83;21090;-73
2021/01/28 12:14:12;;;;;;;19.20;12.15;;;;;;;1.71;77.40;98855.89;2112697;83;21204;-72
2021/01/28 12:17:13;;;;;;;20.52;11.93;;;;;;;1.68;77.45;98847.84;2089627;83;21156;-71
2021/01/28 12:20:18;;;;;;;17.65;11.33;;;;;;;1.69;77.44;98849.97;2109715;82;21195;-70
2021/01/28 12:23:20;;;;;;;19.00;11.80;;;;;;;1.69;77.56;98843.42;2112372;83;21172;-71
2021/01/28 12:26:22;;;;;;;17.02;11.08;;;;;;;1.68;77.63;98844.41;2108186;83;21200;-84
2021/01/28 12:29:24;;;;;;;19.27;12.55;;;;;;;1.67;77.63;98838.36;2106706;81;21565;-78
2021/01/28 12:32:26;;;;;;;18.65;12.00;;;;;;;1.63;77.69;98842.20;2113660;83;21104;-76
2021/01/28 12:35:28;;;;;;;20.15;12.30;;;;;;;1.58;77.77;98841.82;2111292;83;21707;-78
2021/01/28 12:38:29;;;;;;;17.05;10.95;;;;;;;1.66;78.93;98836.72;2093034;83;21137;-81
2021/01/28 12:41:31;;;;;;;19.48;11.33;;;;;;;1.88;78.41;98827.69;2110213;83;21208;-76
2021/01/28 12:44:32;;;;;;;16.87;11.78;;;;;;;1.98;77.98;98814.09;2112676;83;21216;-74
2021/01/28 12:47:34;;;;;;;18.02;11.60;;;;;;;1.88;77.76;98798.09;2117219;83;21821;-73
2021/01/28 12:50:35;;;;;;;18.98;12.28;;;;;;;1.78;77.94;98800.27;2111806;83;21117;-78
2021/01/28 12:53:37;;;;;;;21.55;13.32;;;;;;;1.71;78.08;98794.43;2115772;81;21117;-74
2021/01/28 12:56:38;;;;;;;21.33;13.80;;;;;;;1.65;78.20;98788.47;2113190;83;21113;-73
2021/01/28 12:59:40;;;;;;;20.50;13.05;;;;;;;1.59;78.37;98798.19;2114848;81;21152;-74
2021/01/28 13:02:42;;;;;;;20.72;12.18;;;;;;;1.53;78.58;98793.05;2112265;81;21165;-75
2021/01/28 13:05:43;;;;;;;17.77;11.53;;;;;;;1.49;78.61;98785.12;2112556;83;21482;-77
2021/01/28 13:08:45;;;;;;;23.27;13.43;;;;;;;1.46;78.83;98788.03;2099632;83;21663;-74
2021/01/28 13:11:46;;;;;;;25.08;14.95;;;;;;;1.45;78.97;98786.39;2094512;83;21581;-74
2021/01/28 13:14:48;;;;;;;30.68;16.23;;;;;;;1.46;79.10;98790.64;2089923;83;21110;-74
2021/01/28 13:17:52;;;;;;;26.48;16.20;;;;;;;1.45;79.19;98783.77;2093783;83;21163;-75
2021/01/28 13:20:54;;;;;;;27.85;15.88;;;;;;;1.43;79.26;98785.70;2088127;83;21208;-74
2021/01/28 13:23:55;;;;;;;24.95;14.30;;;;;;;1.41;79.37;98773.24;2093214;83;21196;-76
2021/01/28 13:26:57;;;;;;;19.90;12.78;;;;;;;1.39;79.39;98765.56;2092661;84;21180;-74
2021/01/28 13:29:58;;;;;;;24.65;13.70;;;;;;;1.40;79.49;98759.84;2090736;83;21121;-75
2021/01/28 13:32:59;;;;;;;40.48;22.02;;;;;;;1.39;79.58;98759.52;2097885;84;21517;-75
2021/01/28 13:36:01;;;;;;;33.70;18.37;;;;;;;1.39;79.69;98747.75;2090124;83;21545;-74
2021/01/28 13:39:03;;;;;;;31.37;17.12;;;;;;;1.41;79.76;98746.65;2088196;83;21149;-74
2021/01/28 13:42:06;;;;;;;35.98;20.45;;;;;;;1.46;79.89;98740.98;2095729;83;21216;-74
2021/01/28 13:45:11;;;;;;;32.63;17.35;;;;;;;1.49;79.93;98735.46;2087368;83;21153;-74
2021/01/28 13:48:13;;;;;;;23.67;15.00;;;;;;;1.52;80.00;98733.86;2096168;83;21117;-74
2021/01/28 13:51:15;;;;;;;32.20;17.77;;;;;;;1.53;79.99;98742.06;2091693;83;21490;-74
2021/01/28 13:54:18;;;;;;;25.70;15.98;;;;;;;1.52;80.00;98737.78;2091912;83;21620;-75
2021/01/28 13:57:19;;;;;;;26.12;14.53;;;;;;;1.51;80.12;98734.35;2073632;83;21185;-74
2021/01/28 14:00:22;;;;;;;29.42;18.25;;;;;;;1.51;80.17;98735.66;2091024;83;21153;-77
2021/01/28 14:03:24;;;;;;;32.13;18.27;;;;;;;1.48;80.21;98724.67;2071844;84;21164;-75
2021/01/28 14:06:35;;;;;;;33.53;19.50;;;;;;;1.47;80.34;98723.04;2087566;83;21138;-77
2021/01/28 14:09:36;;;;;;;;;;;;;;;1.45;80.40;98717.12;2092186;83;21126;-81
2021/01/28 14:12:38;;;;;;;;;;;;;;;1.43;80.51;98725.09;2098434;83;20393;-80
2021/01/28 14:15:40;;;;;;;37.42;22.70;;;;;;;1.41;80.59;98720.97;2063837;83;20238;-74
2021/01/28 14:18:42;;;;;;;37.00;22.20;;;;;;;1.38;80.64;98714.72;2087372;84;21157;-74
2021/01/28 14:21:46;;;;;;;28.17;16.85;;;;;;;1.37;80.72;98707.37;2090693;83;21608;-81
2021/01/28 14:24:47;;;;;;;23.92;15.18;;;;;;;1.40;80.82;98708.39;2092405;83;21164;-74
2021/01/28 14:27:50;;;;;;;24.70;16.02;;;;;;;1.43;80.85;98707.28;2090246;83;21117;-75
2021/01/28 14:30:52;;;;;;;29.10;17.92;;;;;;;1.46;80.96;98709.12;2093968;83;22426;-74
2021/01/28 14:33:54;;;;;;;28.75;17.80;;;;;;;1.50;80.95;98703.14;2089707;84;21110;-82